sensor_id;sensor_type;location;lat;lon;timestamp;P1;durP1;ratioP1;P2;durP2;ratioP2
83194;SDS011;73090;49.282;11.402;2023-10-08T00:07:21;2.85;;;1.63;;
83194;SDS011;73090;49.282;11.402;2023-10-08T00:16:24;2.38;;;1.58;;
83194;SDS011;73090;49.282;11.402;2023-10-08T00:25:25;2.58;;;1.55;;
83194;SDS011;73090;49.282;11.402;2023-10-08T00:34:28;2.95;;;1.65;;
83194;SDS011;73090;49.282;11.402;2023-10-08T00:43:33;3.40;;;1.50;;
83194;SDS011;73090;49.282;11.402;2023-10-08T00:52:36;3.33;;;1.45;;
83194;SDS011;73090;49.282;11.402;2023-10-08T01:01:46;3.65;;;1.40;;
83194;SDS011;73090;49.282;11.402;2023-10-08T01:10:53;2.55;;;1.48;;
83194;SDS011;73090;49.282;11.402;2023-10-08T01:20:03;3.75;;;1.48;;
83194;SDS011;73090;49.282;11.402;2023-10-08T01:29:22;2.60;;;1.30;;
83194;SDS011;73090;49.282;11.402;2023-10-08T01:38:26;3.08;;;1.45;;
83194;SDS011;73090;49.282;11.402;2023-10-08T01:47:28;4.47;;;1.90;;
83194;SDS011;73090;49.282;11.402;2023-10-08T01:56:31;4.25;;;1.08;;
83194;SDS011;73090;49.282;11.402;2023-10-08T02:05:33;2.80;;;1.75;;
83194;SDS011;73090;49.282;11.402;2023-10-08T02:14:35;3.25;;;1.52;;
83194;SDS011;73090;49.282;11.402;2023-10-08T02:23:37;4.15;;;1.55;;
83194;SDS011;73090;49.282;11.402;2023-10-08T02:32:39;3.00;;;1.60;;
83194;SDS011;73090;49.282;11.402;2023-10-08T02:41:44;2.55;;;1.25;;
83194;SDS011;73090;49.282;11.402;2023-10-08T02:50:47;3.20;;;1.63;;
83194;SDS011;73090;49.282;11.402;2023-10-08T02:59:49;2.50;;;1.42;;
83194;SDS011;73090;49.282;11.402;2023-10-08T03:08:51;2.22;;;1.55;;
83194;SDS011;73090;49.282;11.402;2023-10-08T03:17:53;2.47;;;1.48;;
83194;SDS011;73090;49.282;11.402;2023-10-08T03:26:56;2.63;;;1.55;;
83194;SDS011;73090;49.282;11.402;2023-10-08T03:36:07;2.92;;;1.58;;
83194;SDS011;73090;49.282;11.402;2023-10-08T03:45:22;1.67;;;1.05;;
83194;SDS011;73090;49.282;11.402;2023-10-08T03:54:42;2.60;;;1.25;;
83194;SDS011;73090;49.282;11.402;2023-10-08T04:03:50;3.15;;;1.50;;
83194;SDS011;73090;49.282;11.402;2023-10-08T04:12:54;3.53;;;1.60;;
83194;SDS011;73090;49.282;11.402;2023-10-08T04:21:56;4.20;;;1.65;;
83194;SDS011;73090;49.282;11.402;2023-10-08T04:30:58;3.63;;;1.60;;
83194;SDS011;73090;49.282;11.402;2023-10-08T04:40:05;3.30;;;1.55;;
83194;SDS011;73090;49.282;11.402;2023-10-08T04:49:07;2.20;;;1.30;;
83194;SDS011;73090;49.282;11.402;2023-10-08T04:58:19;2.13;;;1.42;;
83194;SDS011;73090;49.282;11.402;2023-10-08T05:07:30;2.40;;;1.35;;
83194;SDS011;73090;49.282;11.402;2023-10-08T05:17:02;1.90;;;1.42;;
83194;SDS011;73090;49.282;11.402;2023-10-08T05:26:10;4.05;;;1.15;;
83194;SDS011;73090;49.282;11.402;2023-10-08T05:35:23;3.65;;;1.75;;
83194;SDS011;73090;49.282;11.402;2023-10-08T05:44:44;2.50;;;1.42;;
83194;SDS011;73090;49.282;11.402;2023-10-08T05:54:05;2.45;;;1.55;;
83194;SDS011;73090;49.282;11.402;2023-10-08T06:03:25;2.45;;;1.67;;
83194;SDS011;73090;49.282;11.402;2023-10-08T06:12:35;3.63;;;1.65;;
83194;SDS011;73090;49.282;11.402;2023-10-08T06:21:50;2.47;;;1.45;;
83194;SDS011;73090;49.282;11.402;2023-10-08T06:30:55;3.95;;;1.60;;
83194;SDS011;73090;49.282;11.402;2023-10-08T06:39:59;2.95;;;1.17;;
83194;SDS011;73090;49.282;11.402;2023-10-08T06:49:06;3.28;;;1.30;;
83194;SDS011;73090;49.282;11.402;2023-10-08T06:58:14;4.65;;;1.55;;
83194;SDS011;73090;49.282;11.402;2023-10-08T07:07:16;4.05;;;1.58;;
83194;SDS011;73090;49.282;11.402;2023-10-08T07:25:22;2.35;;;1.48;;
83194;SDS011;73090;49.282;11.402;2023-10-08T07:34:24;3.05;;;1.50;;
83194;SDS011;73090;49.282;11.402;2023-10-08T07:43:26;3.15;;;1.83;;
83194;SDS011;73090;49.282;11.402;2023-10-08T07:52:27;3.92;;;1.70;;
83194;SDS011;73090;49.282;11.402;2023-10-08T08:01:30;4.80;;;1.67;;
83194;SDS011;73090;49.282;11.402;2023-10-08T08:10:35;3.13;;;1.70;;
83194;SDS011;73090;49.282;11.402;2023-10-08T08:19:42;4.68;;;2.20;;
83194;SDS011;73090;49.282;11.402;2023-10-08T08:28:52;5.13;;;1.90;;
83194;SDS011;73090;49.282;11.402;2023-10-08T08:37:55;3.25;;;1.60;;
83194;SDS011;73090;49.282;11.402;2023-10-08T08:47:00;3.50;;;1.67;;
83194;SDS011;73090;49.282;11.402;2023-10-08T08:56:06;2.45;;;1.42;;
83194;SDS011;73090;49.282;11.402;2023-10-08T09:05:11;3.40;;;1.73;;
83194;SDS011;73090;49.282;11.402;2023-10-08T09:14:26;2.60;;;1.65;;
83194;SDS011;73090;49.282;11.402;2023-10-08T09:23:33;2.38;;;1.30;;
83194;SDS011;73090;49.282;11.402;2023-10-08T09:32:38;3.25;;;1.38;;
83194;SDS011;73090;49.282;11.402;2023-10-08T09:41:41;3.53;;;1.48;;
83194;SDS011;73090;49.282;11.402;2023-10-08T09:50:43;3.10;;;1.73;;
83194;SDS011;73090;49.282;11.402;2023-10-08T09:59:47;4.90;;;1.77;;
83194;SDS011;73090;49.282;11.402;2023-10-08T10:08:50;4.38;;;1.65;;
83194;SDS011;73090;49.282;11.402;2023-10-08T10:17:53;3.28;;;1.70;;
83194;SDS011;73090;49.282;11.402;2023-10-08T10:27:14;6.70;;;2.03;;
83194;SDS011;73090;49.282;11.402;2023-10-08T10:36:16;4.95;;;1.77;;
83194;SDS011;73090;49.282;11.402;2023-10-08T10:45:19;2.42;;;1.90;;
83194;SDS011;73090;49.282;11.402;2023-10-08T10:54:39;3.08;;;1.95;;
83194;SDS011;73090;49.282;11.402;2023-10-08T11:03:41;7.65;;;1.98;;
83194;SDS011;73090;49.282;11.402;2023-10-08T11:12:44;3.78;;;1.70;;
83194;SDS011;73090;49.282;11.402;2023-10-08T11:21:53;6.82;;;1.80;;
83194;SDS011;73090;49.282;11.402;2023-10-08T11:30:55;3.35;;;1.60;;
83194;SDS011;73090;49.282;11.402;2023-10-08T11:40:00;5.18;;;2.17;;
83194;SDS011;73090;49.282;11.402;2023-10-08T11:49:19;5.90;;;1.73;;
83194;SDS011;73090;49.282;11.402;2023-10-08T11:58:20;2.78;;;1.80;;
83194;SDS011;73090;49.282;11.402;2023-10-08T12:07:29;5.43;;;1.63;;
83194;SDS011;73090;49.282;11.402;2023-10-08T12:16:34;2.97;;;1.85;;
83194;SDS011;73090;49.282;11.402;2023-10-08T12:25:41;4.75;;;2.25;;
83194;SDS011;73090;49.282;11.402;2023-10-08T12:34:53;2.85;;;1.35;;
83194;SDS011;73090;49.282;11.402;2023-10-08T12:43:55;3.97;;;1.60;;
83194;SDS011;73090;49.282;11.402;2023-10-08T13:02:05;4.60;;;2.00;;
83194;SDS011;73090;49.282;11.402;2023-10-08T13:11:12;5.47;;;1.80;;
83194;SDS011;73090;49.282;11.402;2023-10-08T13:20:14;5.60;;;2.28;;
83194;SDS011;73090;49.282;11.402;2023-10-08T13:29:18;4.78;;;1.70;;
83194;SDS011;73090;49.282;11.402;2023-10-08T13:38:20;3.38;;;1.75;;
83194;SDS011;73090;49.282;11.402;2023-10-08T13:47:22;2.22;;;1.38;;
83194;SDS011;73090;49.282;11.402;2023-10-08T13:56:27;2.80;;;1.52;;
83194;SDS011;73090;49.282;11.402;2023-10-08T14:05:32;3.72;;;2.03;;
83194;SDS011;73090;49.282;11.402;2023-10-08T14:14:35;3.63;;;2.00;;
83194;SDS011;73090;49.282;11.402;2023-10-08T14:23:37;4.60;;;1.75;;
83194;SDS011;73090;49.282;11.402;2023-10-08T14:32:42;3.25;;;1.83;;
83194;SDS011;73090;49.282;11.402;2023-10-08T14:41:47;5.60;;;1.95;;
83194;SDS011;73090;49.282;11.402;2023-10-08T14:51:07;3.47;;;1.55;;
83194;SDS011;73090;49.282;11.402;2023-10-08T15:00:09;3.78;;;2.17;;
83194;SDS011;73090;49.282;11.402;2023-10-08T15:09:12;3.13;;;2.20;;
83194;SDS011;73090;49.282;11.402;2023-10-08T15:27:24;3.60;;;1.65;;
83194;SDS011;73090;49.282;11.402;2023-10-08T15:36:26;3.83;;;1.92;;
83194;SDS011;73090;49.282;11.402;2023-10-08T15:45:28;5.43;;;1.80;;
83194;SDS011;73090;49.282;11.402;2023-10-08T15:54:31;2.50;;;1.80;;
83194;SDS011;73090;49.282;11.402;2023-10-08T16:03:34;5.22;;;1.70;;
83194;SDS011;73090;49.282;11.402;2023-10-08T16:12:36;3.78;;;1.88;;
83194;SDS011;73090;49.282;11.402;2023-10-08T16:21:38;5.80;;;2.25;;
83194;SDS011;73090;49.282;11.402;2023-10-08T16:30:40;4.15;;;2.20;;
83194;SDS011;73090;49.282;11.402;2023-10-08T16:39:44;3.38;;;2.13;;
83194;SDS011;73090;49.282;11.402;2023-10-08T16:48:47;3.00;;;1.65;;
83194;SDS011;73090;49.282;11.402;2023-10-08T16:57:49;3.88;;;2.38;;
83194;SDS011;73090;49.282;11.402;2023-10-08T17:06:51;4.53;;;2.55;;
83194;SDS011;73090;49.282;11.402;2023-10-08T17:15:53;5.50;;;2.08;;
83194;SDS011;73090;49.282;11.402;2023-10-08T17:24:54;3.92;;;2.10;;
83194;SDS011;73090;49.282;11.402;2023-10-08T17:33:57;4.22;;;2.00;;
83194;SDS011;73090;49.282;11.402;2023-10-08T17:42:59;5.05;;;2.38;;
83194;SDS011;73090;49.282;11.402;2023-10-08T17:52:02;5.97;;;2.42;;
83194;SDS011;73090;49.282;11.402;2023-10-08T18:01:09;3.55;;;2.30;;
83194;SDS011;73090;49.282;11.402;2023-10-08T18:10:16;5.07;;;2.90;;
83194;SDS011;73090;49.282;11.402;2023-10-08T18:19:20;4.57;;;2.63;;
83194;SDS011;73090;49.282;11.402;2023-10-08T18:28:25;5.82;;;1.92;;
83194;SDS011;73090;49.282;11.402;2023-10-08T18:37:29;5.10;;;2.40;;
83194;SDS011;73090;49.282;11.402;2023-10-08T18:46:31;5.90;;;2.50;;
83194;SDS011;73090;49.282;11.402;2023-10-08T18:55:33;3.88;;;2.25;;
83194;SDS011;73090;49.282;11.402;2023-10-08T19:04:53;4.72;;;2.88;;
83194;SDS011;73090;49.282;11.402;2023-10-08T19:13:55;4.45;;;2.13;;
83194;SDS011;73090;49.282;11.402;2023-10-08T19:22:57;4.78;;;2.33;;
83194;SDS011;73090;49.282;11.402;2023-10-08T19:31:59;4.78;;;2.10;;
83194;SDS011;73090;49.282;11.402;2023-10-08T19:41:01;4.47;;;1.90;;
83194;SDS011;73090;49.282;11.402;2023-10-08T19:50:02;6.75;;;2.60;;
83194;SDS011;73090;49.282;11.402;2023-10-08T19:59:07;6.10;;;2.47;;
83194;SDS011;73090;49.282;11.402;2023-10-08T20:08:12;4.32;;;2.35;;
83194;SDS011;73090;49.282;11.402;2023-10-08T20:26:18;3.13;;;2.40;;
83194;SDS011;73090;49.282;11.402;2023-10-08T20:35:23;7.80;;;2.83;;
83194;SDS011;73090;49.282;11.402;2023-10-08T20:44:30;2.88;;;1.73;;
83194;SDS011;73090;49.282;11.402;2023-10-08T20:53:35;4.25;;;2.28;;
83194;SDS011;73090;49.282;11.402;2023-10-08T21:02:37;4.10;;;1.95;;
83194;SDS011;73090;49.282;11.402;2023-10-08T21:11:38;4.57;;;2.08;;
83194;SDS011;73090;49.282;11.402;2023-10-08T21:20:41;2.58;;;1.60;;
83194;SDS011;73090;49.282;11.402;2023-10-08T21:29:44;2.92;;;2.05;;
83194;SDS011;73090;49.282;11.402;2023-10-08T21:38:45;5.28;;;1.90;;
83194;SDS011;73090;49.282;11.402;2023-10-08T21:47:48;5.63;;;2.38;;
83194;SDS011;73090;49.282;11.402;2023-10-08T21:56:53;5.82;;;2.40;;
83194;SDS011;73090;49.282;11.402;2023-10-08T22:05:55;2.80;;;1.92;;
83194;SDS011;73090;49.282;11.402;2023-10-08T22:14:57;1.85;;;1.27;;
83194;SDS011;73090;49.282;11.402;2023-10-08T22:24:07;3.83;;;1.70;;
83194;SDS011;73090;49.282;11.402;2023-10-08T22:33:20;4.57;;;1.70;;
83194;SDS011;73090;49.282;11.402;2023-10-08T22:42:35;3.75;;;1.67;;
83194;SDS011;73090;49.282;11.402;2023-10-08T22:51:39;2.90;;;1.65;;
83194;SDS011;73090;49.282;11.402;2023-10-08T23:00:45;3.25;;;1.80;;
83194;SDS011;73090;49.282;11.402;2023-10-08T23:09:51;2.40;;;1.50;;
83194;SDS011;73090;49.282;11.402;2023-10-08T23:18:53;3.00;;;1.67;;
83194;SDS011;73090;49.282;11.402;2023-10-08T23:27:56;2.67;;;1.70;;
83194;SDS011;73090;49.282;11.402;2023-10-08T23:36:59;2.60;;;1.40;;
83194;SDS011;73090;49.282;11.402;2023-10-08T23:46:11;3.35;;;1.50;;
83194;SDS011;73090;49.282;11.402;2023-10-08T23:55:13;2.55;;;1.67;;
